createdAt,value
2017-07-08T00:01:19.157Z,86.50
2017-07-08T00:03:45.648Z,86.70
2017-07-08T00:06:12.174Z,86.90
2017-07-08T00:08:38.655Z,87.00
2017-07-08T00:11:05.170Z,87.50
2017-07-08T00:13:31.676Z,87.10
2017-07-08T00:36:41.953Z,87.60
2017-07-08T00:39:08.440Z,87.50
2017-07-08T00:41:34.915Z,87.40
2017-07-08T00:44:01.466Z,87.80
2017-07-08T00:46:27.935Z,87.80
2017-07-08T00:48:54.422Z,88.20
2017-07-08T00:51:20.919Z,88.20
2017-07-08T00:53:47.438Z,88.20
2017-07-08T00:56:13.903Z,88.20
2017-07-08T00:58:41.170Z,88.10
2017-07-08T01:01:07.662Z,88.10
2017-07-08T01:03:34.384Z,88.10
2017-07-08T01:06:00.853Z,88.00
2017-07-08T01:08:28.054Z,88.10
2017-07-08T01:10:54.583Z,88.10
2017-07-08T01:13:21.084Z,87.80
2017-07-08T01:15:47.573Z,87.80
2017-07-08T01:18:14.067Z,87.70
2017-07-08T01:20:47.595Z,87.80
2017-07-08T01:23:14.322Z,87.70
2017-07-08T01:25:40.802Z,87.50
2017-07-08T01:28:08.017Z,88.30
2017-07-08T01:30:34.514Z,87.60
2017-07-08T01:33:00.966Z,87.60
2017-07-08T01:35:27.517Z,87.50
2017-07-08T01:37:54.012Z,87.60
2017-07-08T01:40:20.520Z,87.70
2017-07-08T01:42:47.790Z,88.60
2017-07-08T01:45:14.346Z,87.90
2017-07-08T01:47:40.861Z,87.80
2017-07-08T01:50:07.623Z,87.80
2017-07-08T01:52:34.121Z,88.00
2017-07-08T01:55:00.651Z,88.00
2017-07-08T01:57:27.235Z,88.00
2017-07-08T01:59:53.752Z,87.90
2017-07-08T02:02:20.204Z,88.00
2017-07-08T02:04:46.681Z,88.00
2017-07-08T02:07:13.181Z,88.00
2017-07-08T02:09:39.647Z,88.20
2017-07-08T02:12:06.211Z,88.20
2017-07-08T02:14:32.677Z,88.10
2017-07-08T02:16:59.188Z,88.10
2017-07-08T02:19:25.679Z,88.40
2017-07-08T02:21:52.354Z,88.10
2017-07-08T02:24:18.807Z,88.30
2017-07-08T02:26:45.262Z,88.60
2017-07-08T02:29:12.514Z,88.60
2017-07-08T02:31:39.739Z,88.70
2017-07-08T02:34:06.251Z,88.70
2017-07-08T02:36:32.729Z,88.90
2017-07-08T02:38:59.935Z,88.70
2017-07-08T02:41:26.449Z,88.70
2017-07-08T02:43:52.948Z,88.50
2017-07-08T02:46:20.212Z,88.50
2017-07-08T02:48:46.685Z,88.40
2017-07-08T02:51:13.175Z,88.20
2017-07-08T02:53:39.637Z,88.10
2017-07-08T02:56:06.146Z,87.90
2017-07-08T02:58:32.810Z,87.80
2017-07-08T03:00:59.323Z,87.80
2017-07-08T03:03:25.799Z,87.90
2017-07-08T03:05:52.330Z,87.80
2017-07-08T03:08:18.805Z,87.80
2017-07-08T03:10:45.323Z,87.90
2017-07-08T03:13:12.620Z,88.00
2017-07-08T03:15:39.155Z,88.00
2017-07-08T03:18:05.619Z,87.70
2017-07-08T03:20:32.125Z,88.20
2017-07-08T03:22:58.637Z,88.10
2017-07-08T03:25:25.123Z,88.20
2017-07-08T03:27:51.612Z,88.10
2017-07-08T03:30:18.120Z,88.30
2017-07-08T03:32:44.655Z,88.50
2017-07-08T03:35:11.129Z,88.50
2017-07-08T03:37:37.601Z,88.60
2017-07-08T03:40:04.858Z,88.30
2017-07-08T03:42:32.081Z,88.10
2017-07-08T03:44:58.597Z,88.10
2017-07-08T03:47:25.054Z,88.20
2017-07-08T03:49:51.562Z,88.00
2017-07-08T03:52:18.031Z,88.10
2017-07-08T03:54:44.490Z,88.00
2017-07-08T03:57:11.009Z,88.20
2017-07-08T03:59:38.205Z,87.60
2017-07-08T04:02:04.713Z,87.60
2017-07-08T04:04:31.223Z,87.80
2017-07-08T04:06:57.754Z,87.70
2017-07-08T04:09:24.974Z,87.70
2017-07-08T04:11:51.424Z,87.70
2017-07-08T04:14:18.187Z,87.80
2017-07-08T04:16:44.668Z,87.80
2017-07-08T04:19:11.128Z,87.90
2017-07-08T04:21:38.463Z,88.30
2017-07-08T04:24:04.935Z,88.30
2017-07-08T04:26:31.426Z,88.10
2017-07-08T04:28:57.919Z,88.40
2017-07-08T04:31:24.425Z,88.30
2017-07-08T04:33:50.959Z,88.00
2017-07-08T04:36:18.169Z,88.20
2017-07-08T04:38:44.877Z,88.20
2017-07-08T04:41:11.351Z,88.20
2017-07-08T04:43:37.813Z,88.30
2017-07-08T04:46:04.371Z,88.20
2017-07-08T04:48:30.834Z,88.00
2017-07-08T04:50:57.317Z,88.10
2017-07-08T04:53:23.817Z,87.80
2017-07-08T04:55:50.290Z,88.00
2017-07-08T04:58:16.759Z,87.90
2017-07-08T05:00:43.257Z,88.10
2017-07-08T05:03:09.746Z,88.60
2017-07-08T05:05:36.228Z,88.60
2017-07-08T05:08:02.771Z,88.20
2017-07-08T05:10:29.288Z,87.90
2017-07-08T05:12:55.763Z,88.00
2017-07-08T05:15:22.266Z,87.00
2017-07-08T05:17:48.767Z,86.40
2017-07-08T05:20:16.002Z,86.00
2017-07-08T05:22:43.204Z,85.70
2017-07-08T05:25:09.681Z,85.70
2017-07-08T05:27:36.919Z,83.80
2017-07-08T05:30:03.625Z,83.80
2017-07-08T05:32:30.129Z,83.50
2017-07-08T05:34:56.584Z,82.70
2017-07-08T05:37:23.194Z,83.10
2017-07-08T05:39:49.662Z,83.30
2017-07-08T05:42:16.169Z,83.40
2017-07-08T05:44:42.685Z,81.70
2017-07-08T05:47:09.177Z,81.60
2017-07-08T05:49:35.658Z,81.20
2017-07-08T05:52:02.197Z,81.00
2017-07-08T05:54:28.687Z,80.30
2017-07-08T05:56:55.167Z,80.60
2017-07-08T05:59:21.714Z,81.70
2017-07-08T06:01:48.484Z,81.40
2017-07-08T06:04:15.024Z,82.60
2017-07-08T06:06:41.502Z,81.70
2017-07-08T06:09:08.182Z,80.30
2017-07-08T06:11:34.660Z,80.20
2017-07-08T06:14:01.155Z,79.30
2017-07-08T06:16:27.685Z,77.30
2017-07-08T06:18:54.188Z,77.50
2017-07-08T06:21:20.729Z,76.90
2017-07-08T06:23:47.233Z,75.70
2017-07-08T06:26:13.749Z,75.50
2017-07-08T06:28:40.321Z,74.30
2017-07-08T06:31:06.804Z,73.40
2017-07-08T06:33:34.011Z,72.10
2017-07-08T06:36:00.499Z,72.00
2017-07-08T06:38:27.711Z,71.20
2017-07-08T06:40:54.236Z,71.20
2017-07-08T06:43:20.954Z,70.40
2017-07-08T06:45:47.513Z,69.90
2017-07-08T06:48:13.991Z,69.90
2017-07-08T06:50:40.783Z,68.20
2017-07-08T06:53:07.257Z,67.10
2017-07-08T06:55:34.466Z,65.40
2017-07-08T06:58:01.093Z,66.00
2017-07-08T07:00:27.608Z,64.80
2017-07-08T07:02:54.097Z,66.10
2017-07-08T07:05:21.370Z,66.60
2017-07-08T07:07:47.863Z,66.60
2017-07-08T07:10:14.328Z,66.80
2017-07-08T07:12:41.102Z,65.80
2017-07-08T07:15:07.571Z,64.60
2017-07-08T07:17:34.047Z,64.00
2017-07-08T07:20:00.558Z,63.90
2017-07-08T07:22:27.786Z,61.00
2017-07-08T07:24:54.387Z,61.00
2017-07-08T07:27:20.855Z,59.80
2017-07-08T07:29:47.350Z,59.90
2017-07-08T07:32:13.881Z,60.00
2017-07-08T07:34:40.367Z,60.20
2017-07-08T07:37:07.707Z,58.80
2017-07-08T07:39:34.121Z,58.70
2017-07-08T07:42:00.663Z,56.20
2017-07-08T07:44:27.144Z,55.90
2017-07-08T07:46:53.646Z,56.40
2017-07-08T07:49:20.913Z,54.60
2017-07-08T07:51:47.386Z,54.60
2017-07-08T07:54:13.900Z,54.40
2017-07-08T07:56:40.407Z,54.80
2017-07-08T07:59:07.663Z,55.60
2017-07-08T08:01:34.195Z,55.50
2017-07-08T08:04:00.875Z,56.20
2017-07-08T08:06:27.390Z,56.80
2017-07-08T08:08:53.918Z,57.40
2017-07-08T08:11:20.429Z,57.70
2017-07-08T08:13:46.915Z,56.50
2017-07-08T08:16:13.399Z,56.10
2017-07-08T08:18:39.994Z,55.20
2017-07-08T08:21:06.444Z,54.90
2017-07-08T08:23:32.930Z,55.30
2017-07-08T08:25:59.450Z,54.20
2017-07-08T08:28:25.923Z,54.70
2017-07-08T08:30:52.452Z,53.20
2017-07-08T08:33:18.938Z,52.40
2017-07-08T08:35:45.619Z,52.40
2017-07-08T08:38:12.147Z,52.10
2017-07-08T08:40:38.623Z,51.70
2017-07-08T08:43:05.853Z,50.40
2017-07-08T08:45:32.343Z,50.40
2017-07-08T08:47:58.900Z,49.70
2017-07-08T08:50:25.386Z,50.00
2017-07-08T08:52:52.163Z,49.30
2017-07-08T08:55:18.648Z,47.80
2017-07-08T08:57:45.862Z,48.10
2017-07-08T09:00:12.363Z,48.10
2017-07-08T09:02:38.898Z,48.50
2017-07-08T09:05:05.429Z,48.40
2017-07-08T09:07:31.928Z,47.00
2017-07-08T09:09:59.425Z,44.70
2017-07-08T09:12:25.919Z,44.70
2017-07-08T09:14:52.407Z,44.80
2017-07-08T09:17:25.943Z,44.70
2017-07-08T09:19:53.151Z,44.00
2017-07-08T09:22:19.685Z,43.90
2017-07-08T09:24:46.173Z,43.90
2017-07-08T09:27:12.634Z,43.50
2017-07-08T09:29:39.192Z,42.40
2017-07-08T09:32:05.649Z,42.10
2017-07-08T09:34:32.897Z,42.30
2017-07-08T09:37:00.116Z,42.80
2017-07-08T09:39:26.594Z,42.70
2017-07-08T09:41:53.873Z,43.20
2017-07-08T09:44:20.383Z,43.10
2017-07-08T09:46:46.884Z,43.80
2017-07-08T09:49:13.598Z,43.20
2017-07-08T09:51:40.062Z,43.30
2017-07-08T09:54:07.271Z,41.10
2017-07-08T09:56:33.829Z,41.10
2017-07-08T09:59:00.292Z,40.10
2017-07-08T10:01:27.484Z,38.30
2017-07-08T10:03:54.009Z,38.30
2017-07-08T10:06:20.465Z,38.30
2017-07-08T10:08:46.926Z,42.60
2017-07-08T10:11:14.266Z,44.60
2017-07-08T10:13:40.742Z,44.60
2017-07-08T10:16:07.222Z,46.10
2017-07-08T10:18:33.721Z,46.80
2017-07-08T10:21:00.193Z,46.00
2017-07-08T10:23:26.705Z,48.00
2017-07-08T10:25:53.191Z,47.60
2017-07-08T10:28:19.684Z,47.00
2017-07-08T10:30:46.318Z,46.90
2017-07-08T10:33:12.824Z,45.30
2017-07-08T10:35:39.274Z,46.30
2017-07-08T10:38:05.941Z,47.70
2017-07-08T10:40:33.165Z,48.90
2017-07-08T10:42:59.692Z,48.80
2017-07-08T10:45:26.320Z,49.70
2017-07-08T10:47:52.815Z,50.60
2017-07-08T10:50:19.363Z,50.00
2017-07-08T10:52:46.131Z,49.30
2017-07-08T10:55:12.628Z,47.10
2017-07-08T10:57:39.117Z,46.50
2017-07-08T11:00:05.667Z,45.30
2017-07-08T11:02:32.923Z,46.20
2017-07-08T11:05:00.160Z,46.90
2017-07-08T11:07:26.695Z,46.80
2017-07-08T11:09:53.186Z,47.50
2017-07-08T11:12:19.703Z,47.30
2017-07-08T11:14:46.243Z,47.60
2017-07-08T11:17:12.735Z,47.50
2017-07-08T11:19:40.242Z,46.70
2017-07-08T11:22:06.740Z,47.30
2017-07-08T11:24:33.230Z,44.50
2017-07-08T11:26:59.947Z,44.60
2017-07-08T11:29:26.441Z,45.00
2017-07-08T11:31:53.635Z,45.60
2017-07-08T11:34:20.375Z,45.60
2017-07-08T11:36:46.842Z,47.20
2017-07-08T11:39:14.053Z,45.90
2017-07-08T11:41:40.546Z,46.40
2017-07-08T11:44:07.027Z,46.40
2017-07-08T11:46:33.549Z,47.10
2017-07-08T11:49:00.049Z,47.40
2017-07-08T11:51:26.517Z,47.80
2017-07-08T11:53:53.047Z,48.50
2017-07-08T11:56:19.560Z,49.00
2017-07-08T11:58:46.030Z,49.30
2017-07-08T12:01:12.541Z,48.20
2017-07-08T12:03:39.031Z,48.70
2017-07-08T12:06:05.566Z,47.80
2017-07-08T12:08:32.072Z,48.80
2017-07-08T12:10:58.604Z,50.00
2017-07-08T12:13:25.115Z,50.20
2017-07-08T12:15:51.571Z,51.10
2017-07-08T12:18:18.102Z,50.50
2017-07-08T12:20:44.587Z,50.20
2017-07-08T12:23:11.087Z,50.30
2017-07-08T12:25:38.324Z,50.00
2017-07-08T12:28:04.826Z,49.90
2017-07-08T12:30:31.595Z,49.40
2017-07-08T12:32:58.095Z,49.70
2017-07-08T12:35:24.568Z,49.00
2017-07-08T12:37:51.122Z,48.10
2017-07-08T12:40:18.360Z,47.50
2017-07-08T12:42:45.606Z,47.00
2017-07-08T12:45:12.919Z,47.50
2017-07-08T12:47:39.390Z,47.40
2017-07-08T12:50:06.654Z,47.60
2017-07-08T12:52:34.169Z,47.20
2017-07-08T12:55:00.622Z,47.20
2017-07-08T12:57:27.098Z,47.00
2017-07-08T12:59:53.633Z,48.80
2017-07-08T13:02:20.133Z,47.20
2017-07-08T13:04:47.399Z,46.00
2017-07-08T13:07:13.878Z,46.70
2017-07-08T13:09:40.362Z,46.80
2017-07-08T13:12:06.895Z,46.10
2017-07-08T13:14:33.524Z,45.50
2017-07-08T13:17:00.747Z,45.80
2017-07-08T13:19:27.224Z,45.10
2017-07-08T13:21:53.737Z,45.10
2017-07-08T13:24:20.251Z,46.50
2017-07-08T13:26:46.885Z,45.80
2017-07-08T13:29:13.350Z,46.10
2017-07-08T13:31:39.851Z,46.20
2017-07-08T13:34:06.354Z,46.70
2017-07-08T13:36:32.894Z,46.50
2017-07-08T13:38:59.386Z,45.90
2017-07-08T13:41:25.855Z,45.90
2017-07-08T13:43:52.375Z,44.80
2017-07-08T13:46:18.863Z,43.20
2017-07-08T13:48:45.317Z,44.40
2017-07-08T13:51:11.842Z,45.00
2017-07-08T13:53:38.323Z,44.80
2017-07-08T13:56:04.823Z,45.20
2017-07-08T13:58:31.269Z,44.90
2017-07-08T14:00:57.906Z,45.30
2017-07-08T14:03:24.438Z,45.70
2017-07-08T14:05:50.929Z,45.60
2017-07-08T14:08:17.440Z,46.60
2017-07-08T14:10:43.934Z,46.00
2017-07-08T14:13:10.460Z,49.80
2017-07-08T14:15:36.963Z,55.60
2017-07-08T14:18:04.472Z,62.30
2017-07-08T14:20:30.929Z,62.20
2017-07-08T14:22:58.165Z,64.30
2017-07-08T14:25:24.691Z,63.80
2017-07-08T14:27:51.186Z,65.30
2017-07-08T14:30:18.684Z,69.60
2017-07-08T14:32:45.170Z,69.70
2017-07-08T14:35:11.648Z,70.50
2017-07-08T14:37:38.142Z,69.00
2017-07-08T14:40:04.621Z,72.20
2017-07-08T14:42:31.152Z,73.10
2017-07-08T14:44:57.641Z,72.90
2017-07-08T14:47:24.150Z,74.60
2017-07-08T14:49:51.423Z,76.80
2017-07-08T14:52:18.048Z,76.80
2017-07-08T14:54:44.543Z,78.40
2017-07-08T14:57:11.021Z,79.70
2017-07-08T14:59:37.534Z,79.00
2017-07-08T15:02:04.831Z,79.90
2017-07-08T15:04:31.338Z,79.90
2017-07-08T15:06:57.835Z,80.70
2017-07-08T15:09:24.331Z,82.30
2017-07-08T15:11:50.856Z,82.10
2017-07-08T15:14:17.341Z,82.20
2017-07-08T15:16:44.585Z,83.30
2017-07-08T15:19:11.072Z,83.20
2017-07-08T15:21:37.795Z,83.40
2017-07-08T15:24:04.273Z,83.20
2017-07-08T15:26:30.784Z,84.40
2017-07-08T15:28:57.399Z,85.20
2017-07-08T15:31:23.902Z,85.10
2017-07-08T15:33:51.156Z,85.30
2017-07-08T15:36:18.450Z,84.90
2017-07-08T15:38:44.944Z,84.90
2017-07-08T15:41:12.191Z,85.50
2017-07-08T15:43:39.401Z,86.10
2017-07-08T15:46:05.913Z,86.10
2017-07-08T15:48:32.463Z,86.20
2017-07-08T15:50:58.947Z,86.80
2017-07-08T15:53:25.420Z,86.80
2017-07-08T15:55:51.938Z,86.80
2017-07-08T15:58:18.402Z,87.10
2017-07-08T16:00:44.897Z,87.20
2017-07-08T16:03:11.424Z,87.60
2017-07-08T16:05:37.943Z,87.10
2017-07-08T16:08:04.450Z,87.40
2017-07-08T16:10:31.674Z,87.70
2017-07-08T16:12:58.355Z,87.60
2017-07-08T16:15:24.859Z,87.50
2017-07-08T16:17:51.339Z,87.10
2017-07-08T16:20:17.843Z,87.60
2017-07-08T16:22:45.080Z,87.20
2017-07-08T16:25:11.611Z,87.10
2017-07-08T16:27:38.171Z,87.00
2017-07-08T16:30:04.682Z,86.20
2017-07-08T16:32:31.185Z,85.20
2017-07-08T16:34:57.733Z,83.20
2017-07-08T16:37:24.242Z,83.80
2017-07-08T16:39:50.817Z,84.90
2017-07-08T16:42:17.352Z,85.30
2017-07-08T16:44:43.829Z,85.70
2017-07-08T16:47:10.367Z,85.80
2017-07-08T16:49:36.867Z,86.50
2017-07-08T16:52:04.183Z,87.00
2017-07-08T16:54:30.672Z,87.00
2017-07-08T16:56:57.207Z,86.50
2017-07-08T16:59:23.711Z,86.20
2017-07-08T17:01:50.248Z,86.20
2017-07-08T17:04:16.724Z,85.70
2017-07-08T17:06:43.286Z,85.70
2017-07-08T17:09:09.770Z,85.90
2017-07-08T17:11:36.260Z,84.90
2017-07-08T17:14:02.758Z,84.30
2017-07-08T17:16:29.273Z,83.60
2017-07-08T17:18:55.831Z,83.60
2017-07-08T17:21:22.327Z,83.80
2017-07-08T17:23:49.561Z,84.10
2017-07-08T17:26:16.834Z,82.80
2017-07-08T17:28:43.317Z,82.80
2017-07-08T17:31:09.830Z,83.20
2017-07-08T17:33:36.362Z,84.00
2017-07-08T17:36:02.875Z,84.40
2017-07-08T17:38:29.401Z,83.10
2017-07-08T17:40:55.904Z,83.20
2017-07-08T17:43:23.154Z,84.00
2017-07-08T17:45:49.692Z,83.70
2017-07-08T17:48:16.948Z,84.40
2017-07-08T17:50:44.197Z,85.60
2017-07-08T17:53:11.446Z,86.40
2017-07-08T17:55:38.896Z,87.00
2017-07-08T17:58:05.384Z,87.00
2017-07-08T18:00:31.934Z,87.40
2017-07-08T18:02:58.443Z,87.40
2017-07-08T18:05:24.940Z,87.70
2017-07-08T18:07:52.196Z,87.40
2017-07-08T18:10:19.467Z,87.50
2017-07-08T18:12:46.232Z,87.50
2017-07-08T18:15:12.747Z,87.10
2017-07-08T18:17:39.256Z,85.40
2017-07-08T18:20:05.791Z,85.10
2017-07-08T18:22:32.258Z,85.30
2017-07-08T18:24:58.757Z,85.90
2017-07-08T18:27:25.259Z,86.70
2017-07-08T18:29:51.757Z,87.00
2017-07-08T18:32:18.219Z,87.10
2017-07-08T18:34:44.725Z,87.10
2017-07-08T18:37:11.231Z,87.20
2017-07-08T18:39:37.740Z,87.20
2017-07-08T18:42:04.994Z,87.90
2017-07-08T18:44:31.494Z,87.90
2017-07-08T18:46:58.115Z,88.00
2017-07-08T18:49:24.583Z,88.30
2017-07-08T18:51:51.801Z,87.90
2017-07-08T18:54:18.379Z,87.80
2017-07-08T18:56:45.602Z,87.50
2017-07-08T18:59:12.073Z,87.40
2017-07-08T19:01:38.608Z,87.50
2017-07-08T19:04:05.095Z,87.70
2017-07-08T19:06:31.633Z,88.00
2017-07-08T19:08:58.083Z,88.00
2017-07-08T19:11:24.563Z,88.00
2017-07-08T19:13:52.723Z,87.90
2017-07-08T19:16:19.206Z,87.90
2017-07-08T19:18:45.661Z,87.60
2017-07-08T19:21:12.984Z,87.80
2017-07-08T19:23:39.473Z,87.80
2017-07-08T19:26:05.966Z,87.70
2017-07-08T19:28:33.176Z,87.10
2017-07-08T19:30:59.682Z,87.00
2017-07-08T19:33:26.151Z,86.60
2017-07-08T19:35:52.614Z,86.50
2017-07-08T19:38:19.866Z,87.00
2017-07-08T19:40:46.346Z,87.00
2017-07-08T19:43:12.877Z,87.40
2017-07-08T19:45:39.367Z,87.60
2017-07-08T19:48:05.853Z,87.60
2017-07-08T19:50:32.381Z,87.60
2017-07-08T19:52:58.903Z,87.60
2017-07-08T19:55:25.569Z,87.50
2017-07-08T19:57:52.091Z,87.10
2017-07-08T20:00:18.610Z,85.10
2017-07-08T20:02:45.363Z,84.80
2017-07-08T20:05:11.854Z,83.40
2017-07-08T20:07:38.366Z,81.70
2017-07-08T20:10:05.627Z,82.20
2017-07-08T20:12:32.816Z,81.20
2017-07-08T20:14:59.422Z,81.00
2017-07-08T20:17:25.893Z,80.90
2017-07-08T20:19:52.365Z,81.10
2017-07-08T20:22:19.716Z,79.70
2017-07-08T20:24:46.966Z,80.60
2017-07-08T20:27:14.228Z,81.40
2017-07-08T20:29:41.517Z,80.80
2017-07-08T20:32:08.001Z,80.80
2017-07-08T20:34:35.235Z,79.70
2017-07-08T20:37:01.697Z,79.60
2017-07-08T20:39:29.206Z,81.00
2017-07-08T20:41:55.678Z,81.00
2017-07-08T20:44:22.907Z,80.60
2017-07-08T20:46:49.438Z,80.60
2017-07-08T20:49:15.910Z,80.90
2017-07-08T20:51:42.464Z,78.40
2017-07-08T20:54:09.055Z,78.00
2017-07-08T20:56:36.330Z,78.20
2017-07-08T20:59:02.816Z,78.10
2017-07-08T21:01:29.291Z,77.50
2017-07-08T21:03:55.836Z,79.30
2017-07-08T21:06:22.313Z,78.80
2017-07-08T21:08:48.785Z,78.20
2017-07-08T21:11:16.025Z,79.80
2017-07-08T21:13:43.290Z,79.70
2017-07-08T21:16:09.778Z,79.70
2017-07-08T21:18:36.257Z,80.00
2017-07-08T21:21:02.787Z,79.90
2017-07-08T21:23:29.288Z,78.90
2017-07-08T21:25:56.011Z,78.20
2017-07-08T21:28:22.490Z,77.90
2017-07-08T21:30:48.980Z,80.30
2017-07-08T21:33:15.706Z,79.20
2017-07-08T21:35:42.178Z,80.50
2017-07-08T21:38:09.417Z,80.60
2017-07-08T21:40:36.116Z,80.60
2017-07-08T21:43:02.573Z,80.90
2017-07-08T21:45:29.077Z,81.50
2017-07-08T21:47:55.595Z,81.30
2017-07-08T21:50:22.088Z,81.40
2017-07-08T21:52:48.584Z,81.60
2017-07-08T21:55:15.079Z,81.60
2017-07-08T21:57:41.585Z,82.10
2017-07-08T22:00:08.038Z,82.70
2017-07-08T22:02:35.288Z,82.70
2017-07-08T22:05:02.532Z,82.10
2017-07-08T22:07:29.741Z,82.60
2017-07-08T22:09:56.253Z,82.60
2017-07-08T22:12:22.772Z,82.90
2017-07-08T22:14:49.275Z,83.00
2017-07-08T22:17:15.878Z,83.00
2017-07-08T22:19:42.356Z,83.40
2017-07-08T22:22:08.832Z,83.50
2017-07-08T22:24:35.354Z,83.60
2017-07-08T22:27:01.842Z,83.80
2017-07-08T22:29:29.091Z,83.70
2017-07-08T22:31:55.593Z,83.60
2017-07-08T22:34:22.320Z,83.70
2017-07-08T22:36:48.811Z,83.30
2017-07-08T22:39:15.273Z,83.60
2017-07-08T22:41:41.769Z,83.80
2017-07-08T22:44:09.021Z,83.60
2017-07-08T22:46:36.259Z,83.80
2017-07-08T22:49:03.777Z,84.00
2017-07-08T22:51:30.261Z,84.00
2017-07-08T22:53:57.539Z,84.40
2017-07-08T22:56:24.054Z,84.40
2017-07-08T22:58:50.530Z,84.60
2017-07-08T23:01:17.110Z,84.30
2017-07-08T23:03:43.609Z,84.40
2017-07-08T23:06:10.135Z,84.20
2017-07-08T23:08:36.611Z,84.30
2017-07-08T23:11:03.070Z,84.30
2017-07-08T23:13:29.732Z,82.50
2017-07-08T23:15:56.206Z,83.30
2017-07-08T23:18:23.431Z,84.10
2017-07-08T23:20:49.931Z,84.10
2017-07-08T23:23:16.418Z,84.20
2017-07-08T23:25:43.641Z,83.80
2017-07-08T23:28:10.267Z,83.70
2017-07-08T23:30:36.751Z,83.40
2017-07-08T23:33:03.277Z,83.10
2017-07-08T23:35:29.922Z,83.70
2017-07-08T23:37:56.383Z,83.90
2017-07-08T23:40:22.866Z,83.90
2017-07-08T23:42:50.108Z,83.40
2017-07-08T23:45:16.612Z,83.40
2017-07-08T23:47:43.081Z,82.90
2017-07-08T23:50:10.359Z,83.10
2017-07-08T23:52:36.829Z,83.00
2017-07-08T23:55:03.335Z,82.70
2017-07-08T23:57:29.963Z,82.10
2017-07-08T23:59:56.468Z,82.10
